sensor_id;sensor_type;location;lat;lon;timestamp;noise_LAeq;noise_LA_min;noise_LA_max;noise_LA01;noise_LA95
4048;Laerm;2038;51.728;6.674;2022-10-26T00:03:36;46.61;45.01;48.34;;
4048;Laerm;2038;51.728;6.674;2022-10-26T00:06:09;46.53;45.04;48.12;;
4048;Laerm;2038;51.728;6.674;2022-10-26T00:08:37;46.52;44.90;48.23;;
4048;Laerm;2038;51.728;6.674;2022-10-26T00:11:04;46.67;45.14;48.43;;
4048;Laerm;2038;51.728;6.674;2022-10-26T00:13:31;46.65;44.87;48.32;;
4048;Laerm;2038;51.728;6.674;2022-10-26T00:15:57;46.59;45.17;48.31;;
4048;Laerm;2038;51.728;6.674;2022-10-26T00:18:24;46.71;45.17;49.39;;
4048;Laerm;2038;51.728;6.674;2022-10-26T00:20:50;47.14;45.11;54.57;;
4048;Laerm;2038;51.728;6.674;2022-10-26T00:23:17;46.69;45.20;48.43;;
4048;Laerm;2038;51.728;6.674;2022-10-26T00:25:44;46.63;45.14;48.57;;
4048;Laerm;2038;51.728;6.674;2022-10-26T00:28:10;46.38;44.87;47.93;;
4048;Laerm;2038;51.728;6.674;2022-10-26T00:30:39;46.44;45.01;48.40;;
4048;Laerm;2038;51.728;6.674;2022-10-26T00:33:05;46.28;44.54;47.95;;
4048;Laerm;2038;51.728;6.674;2022-10-26T00:35:31;46.34;44.39;54.62;;
4048;Laerm;2038;51.728;6.674;2022-10-26T00:37:57;46.17;44.69;47.90;;
4048;Laerm;2038;51.728;6.674;2022-10-26T00:40:28;46.17;44.69;47.74;;
4048;Laerm;2038;51.728;6.674;2022-10-26T00:42:54;46.00;44.47;47.59;;
4048;Laerm;2038;51.728;6.674;2022-10-26T00:45:25;45.95;44.54;47.50;;
4048;Laerm;2038;51.728;6.674;2022-10-26T00:48:00;45.81;44.03;47.50;;
4048;Laerm;2038;51.728;6.674;2022-10-26T00:50:33;45.79;44.31;47.22;;
4048;Laerm;2038;51.728;6.674;2022-10-26T00:53:05;46.03;44.43;49.39;;
4048;Laerm;2038;51.728;6.674;2022-10-26T00:55:37;46.06;44.58;48.02;;
4048;Laerm;2038;51.728;6.674;2022-10-26T00:58:07;46.09;44.07;47.84;;
4048;Laerm;2038;51.728;6.674;2022-10-26T01:00:35;46.19;44.47;49.70;;
4048;Laerm;2038;51.728;6.674;2022-10-26T01:03:06;46.18;44.65;48.10;;
4048;Laerm;2038;51.728;6.674;2022-10-26T01:05:39;46.30;44.80;48.00;;
4048;Laerm;2038;51.728;6.674;2022-10-26T01:08:07;46.31;44.87;48.13;;
4048;Laerm;2038;51.728;6.674;2022-10-26T01:10:37;46.39;44.92;48.05;;
4048;Laerm;2038;51.728;6.674;2022-10-26T01:13:05;46.37;45.01;48.10;;
4048;Laerm;2038;51.728;6.674;2022-10-26T01:15:59;46.59;45.01;48.40;;
4048;Laerm;2038;51.728;6.674;2022-10-26T01:21:31;46.60;45.11;48.90;;
4048;Laerm;2038;51.728;6.674;2022-10-26T01:24:34;46.54;45.17;48.12;;
4048;Laerm;2038;51.728;6.674;2022-10-26T01:27:37;46.43;44.83;48.10;;
4048;Laerm;2038;51.728;6.674;2022-10-26T01:30:25;46.35;44.54;47.98;;
4048;Laerm;2038;51.728;6.674;2022-10-26T01:36:02;46.43;44.80;50.98;;
4048;Laerm;2038;51.728;6.674;2022-10-26T01:38:52;46.16;44.62;47.79;;
4048;Laerm;2038;51.728;6.674;2022-10-26T01:41:46;45.94;44.47;47.32;;
4048;Laerm;2038;51.728;6.674;2022-10-26T01:44:39;46.08;44.65;51.31;;
4048;Laerm;2038;51.728;6.674;2022-10-26T01:47:12;46.11;44.35;52.48;;
4048;Laerm;2038;51.728;6.674;2022-10-26T01:49:47;45.72;44.15;47.13;;
4048;Laerm;2038;51.728;6.674;2022-10-26T01:52:17;45.76;44.39;50.01;;
4048;Laerm;2038;51.728;6.674;2022-10-26T01:54:43;45.62;44.15;46.97;;
4048;Laerm;2038;51.728;6.674;2022-10-26T01:57:13;45.54;43.99;47.14;;
4048;Laerm;2038;51.728;6.674;2022-10-26T02:00:07;45.54;44.19;49.43;;
4048;Laerm;2038;51.728;6.674;2022-10-26T02:03:10;45.33;44.03;46.84;;
4048;Laerm;2038;51.728;6.674;2022-10-26T02:06:06;45.29;43.72;46.76;;
4048;Laerm;2038;51.728;6.674;2022-10-26T02:15:38;45.23;43.86;51.82;;
4048;Laerm;2038;51.728;6.674;2022-10-26T02:18:34;45.12;43.44;52.59;;
4048;Laerm;2038;51.728;6.674;2022-10-26T02:21:12;44.80;43.49;48.76;;
4048;Laerm;2038;51.728;6.674;2022-10-26T02:23:45;45.14;43.49;53.79;;
4048;Laerm;2038;51.728;6.674;2022-10-26T02:26:17;44.83;43.39;50.68;;
4048;Laerm;2038;51.728;6.674;2022-10-26T02:28:50;44.99;43.14;52.79;;
4048;Laerm;2038;51.728;6.674;2022-10-26T02:31:21;44.91;43.44;51.02;;
4048;Laerm;2038;51.728;6.674;2022-10-26T02:33:53;44.97;43.54;50.21;;
4048;Laerm;2038;51.728;6.674;2022-10-26T02:36:27;44.77;43.49;46.06;;
4048;Laerm;2038;51.728;6.674;2022-10-26T02:38:56;45.17;43.68;51.65;;
4048;Laerm;2038;51.728;6.674;2022-10-26T02:41:27;45.64;43.90;52.56;;
4048;Laerm;2038;51.728;6.674;2022-10-26T02:44:25;45.24;43.76;46.69;;
4048;Laerm;2038;51.728;6.674;2022-10-26T02:46:54;46.04;43.90;53.32;;
4048;Laerm;2038;51.728;6.674;2022-10-26T02:49:21;45.61;43.90;53.17;;
4048;Laerm;2038;51.728;6.674;2022-10-26T02:52:15;45.40;43.58;50.49;;
4048;Laerm;2038;51.728;6.674;2022-10-26T02:55:00;45.70;43.90;54.05;;
4048;Laerm;2038;51.728;6.674;2022-10-26T02:57:48;45.14;43.54;51.82;;
4048;Laerm;2038;51.728;6.674;2022-10-26T03:00:17;45.61;43.58;55.97;;
4048;Laerm;2038;51.728;6.674;2022-10-26T03:02:51;45.63;43.44;55.91;;
4048;Laerm;2038;51.728;6.674;2022-10-26T03:05:20;45.06;43.77;51.95;;
4048;Laerm;2038;51.728;6.674;2022-10-26T03:07:48;45.97;43.58;57.62;;
4048;Laerm;2038;51.728;6.674;2022-10-26T03:10:14;45.80;43.72;55.88;;
4048;Laerm;2038;51.728;6.674;2022-10-26T03:12:40;46.35;43.68;56.50;;
4048;Laerm;2038;51.728;6.674;2022-10-26T03:15:07;45.16;43.68;51.71;;
4048;Laerm;2038;51.728;6.674;2022-10-26T03:17:33;45.15;43.86;46.78;;
4048;Laerm;2038;51.728;6.674;2022-10-26T03:20:00;45.44;43.58;50.90;;
4048;Laerm;2038;51.728;6.674;2022-10-26T03:22:26;45.71;44.07;53.87;;
4048;Laerm;2038;51.728;6.674;2022-10-26T03:24:52;45.83;44.23;51.21;;
4048;Laerm;2038;51.728;6.674;2022-10-26T03:27:18;46.34;44.15;55.30;;
4048;Laerm;2038;51.728;6.674;2022-10-26T03:29:45;45.86;44.23;50.47;;
4048;Laerm;2038;51.728;6.674;2022-10-26T03:32:11;45.91;44.15;52.68;;
4048;Laerm;2038;51.728;6.674;2022-10-26T03:34:37;45.74;43.99;51.13;;
4048;Laerm;2038;51.728;6.674;2022-10-26T03:37:03;45.88;43.99;51.54;;
4048;Laerm;2038;51.728;6.674;2022-10-26T03:39:29;45.84;44.03;53.89;;
4048;Laerm;2038;51.728;6.674;2022-10-26T03:41:56;45.79;44.11;52.74;;
4048;Laerm;2038;51.728;6.674;2022-10-26T03:44:22;46.45;44.15;58.62;;
4048;Laerm;2038;51.728;6.674;2022-10-26T03:46:48;45.90;43.68;52.00;;
4048;Laerm;2038;51.728;6.674;2022-10-26T03:49:14;45.84;44.19;50.74;;
4048;Laerm;2038;51.728;6.674;2022-10-26T03:51:41;46.14;44.15;55.12;;
4048;Laerm;2038;51.728;6.674;2022-10-26T03:54:07;46.30;43.63;56.90;;
4048;Laerm;2038;51.728;6.674;2022-10-26T03:56:33;46.61;43.99;54.96;;
4048;Laerm;2038;51.728;6.674;2022-10-26T03:58:59;45.42;44.03;51.35;;
4048;Laerm;2038;51.728;6.674;2022-10-26T04:01:26;45.43;43.99;50.58;;
4048;Laerm;2038;51.728;6.674;2022-10-26T04:03:52;45.73;43.90;50.88;;
4048;Laerm;2038;51.728;6.674;2022-10-26T04:06:18;47.26;43.94;57.36;;
4048;Laerm;2038;51.728;6.674;2022-10-26T04:08:44;45.49;44.07;52.28;;
4048;Laerm;2038;51.728;6.674;2022-10-26T04:11:11;45.28;44.03;46.59;;
4048;Laerm;2038;51.728;6.674;2022-10-26T04:13:37;46.08;43.94;53.75;;
4048;Laerm;2038;51.728;6.674;2022-10-26T04:16:03;46.27;43.86;53.10;;
4048;Laerm;2038;51.728;6.674;2022-10-26T04:18:30;46.73;43.77;57.32;;
4048;Laerm;2038;51.728;6.674;2022-10-26T04:20:59;47.31;44.03;60.21;;
4048;Laerm;2038;51.728;6.674;2022-10-26T04:23:26;46.71;43.86;55.41;;
4048;Laerm;2038;51.728;6.674;2022-10-26T04:25:52;46.60;43.94;58.09;;
4048;Laerm;2038;51.728;6.674;2022-10-26T04:28:18;46.52;43.90;56.40;;
4048;Laerm;2038;51.728;6.674;2022-10-26T04:30:46;46.49;44.03;54.08;;
4048;Laerm;2038;51.728;6.674;2022-10-26T04:33:12;45.83;43.72;52.75;;
4048;Laerm;2038;51.728;6.674;2022-10-26T04:35:39;45.22;43.63;49.58;;
4048;Laerm;2038;51.728;6.674;2022-10-26T04:38:06;46.99;43.77;62.54;;
4048;Laerm;2038;51.728;6.674;2022-10-26T04:40:34;46.78;43.39;59.14;;
4048;Laerm;2038;51.728;6.674;2022-10-26T04:43:00;45.88;43.34;55.12;;
4048;Laerm;2038;51.728;6.674;2022-10-26T04:45:27;46.63;43.29;61.76;;
4048;Laerm;2038;51.728;6.674;2022-10-26T04:48:09;46.53;43.00;55.54;;
4048;Laerm;2038;51.728;6.674;2022-10-26T04:50:37;46.49;42.53;55.89;;
4048;Laerm;2038;51.728;6.674;2022-10-26T04:53:05;46.59;42.71;57.29;;
4048;Laerm;2038;51.728;6.674;2022-10-26T04:55:32;44.40;43.04;51.38;;
4048;Laerm;2038;51.728;6.674;2022-10-26T04:57:59;45.54;43.09;52.80;;
4048;Laerm;2038;51.728;6.674;2022-10-26T05:00:25;48.25;43.34;59.08;;
4048;Laerm;2038;51.728;6.674;2022-10-26T05:02:58;45.49;43.44;52.40;;
4048;Laerm;2038;51.728;6.674;2022-10-26T05:05:24;45.81;43.44;52.80;;
4048;Laerm;2038;51.728;6.674;2022-10-26T05:07:54;45.70;43.34;53.14;;
4048;Laerm;2038;51.728;6.674;2022-10-26T05:10:22;46.46;42.98;56.70;;
4048;Laerm;2038;51.728;6.674;2022-10-26T05:12:53;46.83;43.04;58.28;;
4048;Laerm;2038;51.728;6.674;2022-10-26T05:15:20;45.41;43.09;53.55;;
4048;Laerm;2038;51.728;6.674;2022-10-26T05:17:54;47.91;43.04;58.04;;
4048;Laerm;2038;51.728;6.674;2022-10-26T05:20:21;45.57;43.19;51.95;;
4048;Laerm;2038;51.728;6.674;2022-10-26T05:22:54;45.72;43.19;52.21;;
4048;Laerm;2038;51.728;6.674;2022-10-26T05:25:21;46.29;43.19;53.75;;
4048;Laerm;2038;51.728;6.674;2022-10-26T05:27:47;47.64;42.88;60.51;;
4048;Laerm;2038;51.728;6.674;2022-10-26T05:30:13;45.31;43.19;52.77;;
4048;Laerm;2038;51.728;6.674;2022-10-26T05:32:39;46.27;43.09;57.28;;
4048;Laerm;2038;51.728;6.674;2022-10-26T05:35:06;46.10;43.04;56.93;;
4048;Laerm;2038;51.728;6.674;2022-10-26T05:37:32;48.29;43.24;59.15;;
4048;Laerm;2038;51.728;6.674;2022-10-26T05:39:59;46.89;43.04;53.50;;
4048;Laerm;2038;51.728;6.674;2022-10-26T05:42:25;47.40;43.24;59.72;;
4048;Laerm;2038;51.728;6.674;2022-10-26T05:44:51;46.91;42.93;58.54;;
4048;Laerm;2038;51.728;6.674;2022-10-26T05:47:17;45.21;43.04;56.27;;
4048;Laerm;2038;51.728;6.674;2022-10-26T05:49:43;46.64;42.93;52.56;;
4048;Laerm;2038;51.728;6.674;2022-10-26T05:52:10;46.89;42.65;58.69;;
4048;Laerm;2038;51.728;6.674;2022-10-26T05:54:36;45.44;42.76;53.13;;
4048;Laerm;2038;51.728;6.674;2022-10-26T05:57:02;47.05;42.65;58.27;;
4048;Laerm;2038;51.728;6.674;2022-10-26T05:59:29;46.08;42.71;52.06;;
4048;Laerm;2038;51.728;6.674;2022-10-26T06:02:25;45.96;42.35;53.79;;
4048;Laerm;2038;51.728;6.674;2022-10-26T06:05:02;44.69;42.47;50.17;;
4048;Laerm;2038;51.728;6.674;2022-10-26T06:07:29;46.17;42.41;62.03;;
4048;Laerm;2038;51.728;6.674;2022-10-26T06:09:57;47.55;42.65;55.91;;
4048;Laerm;2038;51.728;6.674;2022-10-26T06:12:23;44.76;42.41;50.68;;
4048;Laerm;2038;51.728;6.674;2022-10-26T06:14:51;48.58;42.22;64.72;;
4048;Laerm;2038;51.728;6.674;2022-10-26T06:17:58;46.17;42.16;54.62;;
4048;Laerm;2038;51.728;6.674;2022-10-26T06:24:03;45.30;41.89;56.80;;
4048;Laerm;2038;51.728;6.674;2022-10-26T06:30:00;45.99;42.03;58.26;;
4048;Laerm;2038;51.728;6.674;2022-10-26T06:32:27;44.99;41.96;54.20;;
4048;Laerm;2038;51.728;6.674;2022-10-26T06:37:32;46.50;41.82;55.78;;
4048;Laerm;2038;51.728;6.674;2022-10-26T06:40:01;47.57;42.09;60.15;;
4048;Laerm;2038;51.728;6.674;2022-10-26T06:42:30;46.76;42.16;60.17;;
4048;Laerm;2038;51.728;6.674;2022-10-26T06:44:57;48.61;42.29;61.25;;
4048;Laerm;2038;51.728;6.674;2022-10-26T06:47:39;46.03;42.22;56.56;;
4048;Laerm;2038;51.728;6.674;2022-10-26T06:53:08;48.36;42.16;62.09;;
4048;Laerm;2038;51.728;6.674;2022-10-26T06:55:43;46.17;42.41;54.49;;
4048;Laerm;2038;51.728;6.674;2022-10-26T06:58:24;45.65;42.22;56.14;;
4048;Laerm;2038;51.728;6.674;2022-10-26T07:00:54;46.44;42.09;54.90;;
4048;Laerm;2038;51.728;6.674;2022-10-26T07:03:21;46.39;42.35;55.22;;
4048;Laerm;2038;51.728;6.674;2022-10-26T07:05:48;45.05;42.29;59.02;;
4048;Laerm;2038;51.728;6.674;2022-10-26T07:08:14;47.40;42.41;59.71;;
4048;Laerm;2038;51.728;6.674;2022-10-26T07:10:41;45.28;42.35;57.07;;
4048;Laerm;2038;51.728;6.674;2022-10-26T07:13:09;47.15;42.29;62.85;;
4048;Laerm;2038;51.728;6.674;2022-10-26T07:15:37;48.99;42.09;64.61;;
4048;Laerm;2038;51.728;6.674;2022-10-26T07:18:06;48.25;42.22;66.05;;
4048;Laerm;2038;51.728;6.674;2022-10-26T07:20:40;48.81;42.29;59.55;;
4048;Laerm;2038;51.728;6.674;2022-10-26T07:23:08;46.34;41.89;58.81;;
4048;Laerm;2038;51.728;6.674;2022-10-26T07:25:37;45.22;42.29;52.53;;
4048;Laerm;2038;51.728;6.674;2022-10-26T07:28:09;44.20;41.89;53.26;;
4048;Laerm;2038;51.728;6.674;2022-10-26T07:30:37;45.73;42.16;57.49;;
4048;Laerm;2038;51.728;6.674;2022-10-26T07:33:11;46.10;41.82;55.20;;
4048;Laerm;2038;51.728;6.674;2022-10-26T07:35:38;48.79;42.16;68.59;;
4048;Laerm;2038;51.728;6.674;2022-10-26T07:38:05;47.94;41.89;65.35;;
4048;Laerm;2038;51.728;6.674;2022-10-26T07:40:31;45.28;41.22;53.71;;
4048;Laerm;2038;51.728;6.674;2022-10-26T07:42:59;44.47;41.75;56.92;;
4048;Laerm;2038;51.728;6.674;2022-10-26T07:45:27;45.46;41.75;57.30;;
4048;Laerm;2038;51.728;6.674;2022-10-26T07:47:54;47.28;41.68;57.95;;
4048;Laerm;2038;51.728;6.674;2022-10-26T07:50:21;46.22;41.53;57.50;;
4048;Laerm;2038;51.728;6.674;2022-10-26T07:52:47;48.32;41.38;63.24;;
4048;Laerm;2038;51.728;6.674;2022-10-26T07:55:13;44.69;41.89;53.79;;
4048;Laerm;2038;51.728;6.674;2022-10-26T07:57:40;46.92;42.16;56.69;;
4048;Laerm;2038;51.728;6.674;2022-10-26T08:00:08;45.65;41.88;58.04;;
4048;Laerm;2038;51.728;6.674;2022-10-26T08:02:35;44.56;41.30;58.15;;
4048;Laerm;2038;51.728;6.674;2022-10-26T08:05:02;45.94;41.89;55.83;;
4048;Laerm;2038;51.728;6.674;2022-10-26T08:07:29;47.77;41.61;62.30;;
4048;Laerm;2038;51.728;6.674;2022-10-26T08:09:55;44.82;41.53;52.62;;
4048;Laerm;2038;51.728;6.674;2022-10-26T08:12:21;46.77;41.61;59.81;;
4048;Laerm;2038;51.728;6.674;2022-10-26T08:14:47;47.17;41.30;58.61;;
4048;Laerm;2038;51.728;6.674;2022-10-26T08:17:14;44.66;41.14;56.89;;
4048;Laerm;2038;51.728;6.674;2022-10-26T08:19:40;50.24;41.46;63.57;;
4048;Laerm;2038;51.728;6.674;2022-10-26T08:22:06;44.30;40.98;53.36;;
4048;Laerm;2038;51.728;6.674;2022-10-26T08:24:32;46.71;41.14;58.79;;
4048;Laerm;2038;51.728;6.674;2022-10-26T08:26:59;45.75;41.22;55.85;;
4048;Laerm;2038;51.728;6.674;2022-10-26T08:29:25;48.06;41.14;64.48;;
4048;Laerm;2038;51.728;6.674;2022-10-26T08:31:51;47.22;40.79;58.68;;
4048;Laerm;2038;51.728;6.674;2022-10-26T08:34:18;47.36;40.71;59.96;;
4048;Laerm;2038;51.728;6.674;2022-10-26T08:36:44;50.70;40.62;70.70;;
4048;Laerm;2038;51.728;6.674;2022-10-26T08:39:10;47.28;40.71;58.31;;
4048;Laerm;2038;51.728;6.674;2022-10-26T08:41:45;47.16;40.43;59.09;;
4048;Laerm;2038;51.728;6.674;2022-10-26T08:47:33;46.08;40.80;58.38;;
4048;Laerm;2038;51.728;6.674;2022-10-26T08:50:13;46.58;41.06;59.25;;
4048;Laerm;2038;51.728;6.674;2022-10-26T08:52:57;46.96;40.62;59.94;;
4048;Laerm;2038;51.728;6.674;2022-10-26T08:55:40;47.21;40.89;60.87;;
4048;Laerm;2038;51.728;6.674;2022-10-26T08:58:16;47.43;41.30;60.16;;
4048;Laerm;2038;51.728;6.674;2022-10-26T09:00:47;47.48;40.71;59.66;;
4048;Laerm;2038;51.728;6.674;2022-10-26T09:03:16;47.19;41.06;58.76;;
4048;Laerm;2038;51.728;6.674;2022-10-26T09:06:08;47.79;40.53;66.46;;
4048;Laerm;2038;51.728;6.674;2022-10-26T09:14:14;47.07;40.98;59.15;;
4048;Laerm;2038;51.728;6.674;2022-10-26T09:20:02;45.87;40.43;59.39;;
4048;Laerm;2038;51.728;6.674;2022-10-26T09:22:59;44.45;40.62;57.17;;
4048;Laerm;2038;51.728;6.674;2022-10-26T09:25:37;46.18;40.53;58.86;;
4048;Laerm;2038;51.728;6.674;2022-10-26T09:28:11;47.45;40.62;63.10;;
4048;Laerm;2038;51.728;6.674;2022-10-26T09:30:39;45.89;40.33;57.66;;
4048;Laerm;2038;51.728;6.674;2022-10-26T09:33:15;43.79;40.13;54.48;;
4048;Laerm;2038;51.728;6.674;2022-10-26T09:35:52;47.78;40.03;60.76;;
4048;Laerm;2038;51.728;6.674;2022-10-26T09:38:33;43.58;40.03;53.54;;
4048;Laerm;2038;51.728;6.674;2022-10-26T09:41:28;46.95;40.13;61.75;;
4048;Laerm;2038;51.728;6.674;2022-10-26T09:44:18;51.18;40.53;71.31;;
4048;Laerm;2038;51.728;6.674;2022-10-26T09:47:27;47.51;40.53;71.72;;
4048;Laerm;2038;51.728;6.674;2022-10-26T09:50:32;47.46;40.03;62.02;;
4048;Laerm;2038;51.728;6.674;2022-10-26T09:52:59;48.14;40.03;63.63;;
4048;Laerm;2038;51.728;6.674;2022-10-26T09:55:25;49.99;40.13;64.01;;
4048;Laerm;2038;51.728;6.674;2022-10-26T09:57:57;45.98;39.92;57.56;;
4048;Laerm;2038;51.728;6.674;2022-10-26T10:00:27;52.83;40.23;68.04;;
4048;Laerm;2038;51.728;6.674;2022-10-26T10:02:58;46.85;40.53;58.32;;
4048;Laerm;2038;51.728;6.674;2022-10-26T10:05:32;45.91;40.33;57.56;;
4048;Laerm;2038;51.728;6.674;2022-10-26T10:08:23;46.50;39.70;57.21;;
4048;Laerm;2038;51.728;6.674;2022-10-26T10:11:04;45.62;39.81;56.51;;
4048;Laerm;2038;51.728;6.674;2022-10-26T10:13:36;50.51;40.13;64.09;;
4048;Laerm;2038;51.728;6.674;2022-10-26T10:18:57;46.28;39.70;63.38;;
4048;Laerm;2038;51.728;6.674;2022-10-26T10:21:47;49.55;39.70;64.56;;
4048;Laerm;2038;51.728;6.674;2022-10-26T10:27:17;42.71;39.81;54.03;;
4048;Laerm;2038;51.728;6.674;2022-10-26T10:32:32;44.67;39.92;58.19;;
4048;Laerm;2038;51.728;6.674;2022-10-26T10:34:59;46.06;39.70;57.68;;
4048;Laerm;2038;51.728;6.674;2022-10-26T10:37:39;45.76;39.70;58.06;;
4048;Laerm;2038;51.728;6.674;2022-10-26T10:40:18;46.28;40.62;56.41;;
4048;Laerm;2038;51.728;6.674;2022-10-26T10:42:47;49.73;40.33;63.49;;
4048;Laerm;2038;51.728;6.674;2022-10-26T10:45:25;45.85;39.81;58.71;;
4048;Laerm;2038;51.728;6.674;2022-10-26T10:48:13;47.70;40.43;62.52;;
4048;Laerm;2038;51.728;6.674;2022-10-26T10:51:01;45.59;40.89;55.89;;
4048;Laerm;2038;51.728;6.674;2022-10-26T10:53:47;45.28;41.06;59.22;;
4048;Laerm;2038;51.728;6.674;2022-10-26T10:56:33;47.67;40.43;60.21;;
4048;Laerm;2038;51.728;6.674;2022-10-26T10:59:32;47.87;40.03;61.10;;
4048;Laerm;2038;51.728;6.674;2022-10-26T11:05:39;46.83;40.13;55.97;;
4048;Laerm;2038;51.728;6.674;2022-10-26T11:09:07;46.96;40.03;63.42;;
4048;Laerm;2038;51.728;6.674;2022-10-26T11:11:31;48.46;39.92;63.57;;
4048;Laerm;2038;51.728;6.674;2022-10-26T11:14:37;47.55;40.53;61.19;;
4048;Laerm;2038;51.728;6.674;2022-10-26T11:17:30;45.88;40.53;55.76;;
4048;Laerm;2038;51.728;6.674;2022-10-26T11:20:05;48.15;40.43;61.86;;
4048;Laerm;2038;51.728;6.674;2022-10-26T11:22:52;44.86;40.33;57.09;;
4048;Laerm;2038;51.728;6.674;2022-10-26T11:25:52;55.64;40.13;72.53;;
4048;Laerm;2038;51.728;6.674;2022-10-26T11:29:08;46.67;40.13;63.14;;
4048;Laerm;2038;51.728;6.674;2022-10-26T11:31:43;45.01;40.03;55.95;;
4048;Laerm;2038;51.728;6.674;2022-10-26T11:34:43;48.62;40.62;61.66;;
4048;Laerm;2038;51.728;6.674;2022-10-26T11:37:35;51.87;41.46;67.96;;
4048;Laerm;2038;51.728;6.674;2022-10-26T11:40:46;45.29;41.22;55.62;;
4048;Laerm;2038;51.728;6.674;2022-10-26T11:46:12;45.79;40.13;57.83;;
4048;Laerm;2038;51.728;6.674;2022-10-26T11:49:23;50.97;40.88;68.44;;
4048;Laerm;2038;51.728;6.674;2022-10-26T11:52:17;47.46;41.46;58.76;;
4048;Laerm;2038;51.728;6.674;2022-10-26T11:54:48;47.34;41.38;59.65;;
4048;Laerm;2038;51.728;6.674;2022-10-26T11:57:18;45.99;40.53;56.04;;
4048;Laerm;2038;51.728;6.674;2022-10-26T12:00:05;45.58;40.23;58.32;;
4048;Laerm;2038;51.728;6.674;2022-10-26T12:02:45;50.16;40.53;64.33;;
4048;Laerm;2038;51.728;6.674;2022-10-26T12:10:52;52.76;40.98;66.35;;
4048;Laerm;2038;51.728;6.674;2022-10-26T12:13:26;46.65;40.53;57.50;;
4048;Laerm;2038;51.728;6.674;2022-10-26T12:16:34;45.45;39.58;56.13;;
4048;Laerm;2038;51.728;6.674;2022-10-26T12:19:25;49.41;40.43;62.81;;
4048;Laerm;2038;51.728;6.674;2022-10-26T12:21:55;48.74;40.33;62.05;;
4048;Laerm;2038;51.728;6.674;2022-10-26T12:24:31;48.57;40.71;58.68;;
4048;Laerm;2038;51.728;6.674;2022-10-26T12:30:24;49.72;40.43;64.00;;
4048;Laerm;2038;51.728;6.674;2022-10-26T12:32:59;46.31;40.03;58.22;;
4048;Laerm;2038;51.728;6.674;2022-10-26T12:35:43;49.24;40.43;64.58;;
4048;Laerm;2038;51.728;6.674;2022-10-26T12:41:20;47.35;40.13;59.77;;
4048;Laerm;2038;51.728;6.674;2022-10-26T12:43:47;49.94;40.03;63.79;;
4048;Laerm;2038;51.728;6.674;2022-10-26T12:48:44;47.42;40.71;55.55;;
4048;Laerm;2038;51.728;6.674;2022-10-26T12:57:20;48.18;40.89;56.99;;
4048;Laerm;2038;51.728;6.674;2022-10-26T13:00:01;45.91;40.53;56.48;;
4048;Laerm;2038;51.728;6.674;2022-10-26T13:08:51;52.26;41.30;69.16;;
4048;Laerm;2038;51.728;6.674;2022-10-26T13:11:28;47.92;40.23;57.50;;
4048;Laerm;2038;51.728;6.674;2022-10-26T13:14:00;50.15;40.53;65.43;;
4048;Laerm;2038;51.728;6.674;2022-10-26T13:16:29;46.15;40.62;56.59;;
4048;Laerm;2038;51.728;6.674;2022-10-26T13:18:56;50.55;40.62;63.64;;
4048;Laerm;2038;51.728;6.674;2022-10-26T13:21:25;47.39;40.43;62.53;;
4048;Laerm;2038;51.728;6.674;2022-10-26T13:23:57;45.69;39.81;55.13;;
4048;Laerm;2038;51.728;6.674;2022-10-26T13:32:30;48.45;41.14;62.86;;
4048;Laerm;2038;51.728;6.674;2022-10-26T13:35:01;52.74;40.33;68.09;;
4048;Laerm;2038;51.728;6.674;2022-10-26T13:37:31;48.50;39.92;61.27;;
4048;Laerm;2038;51.728;6.674;2022-10-26T13:39:59;45.83;40.33;57.06;;
4048;Laerm;2038;51.728;6.674;2022-10-26T13:43:03;48.04;40.03;65.25;;
4048;Laerm;2038;51.728;6.674;2022-10-26T13:45:49;49.29;40.43;64.19;;
4048;Laerm;2038;51.728;6.674;2022-10-26T13:48:23;48.85;40.33;62.45;;
4048;Laerm;2038;51.728;6.674;2022-10-26T13:51:04;47.38;40.80;56.91;;
4048;Laerm;2038;51.728;6.674;2022-10-26T13:53:50;48.95;40.53;64.52;;
4048;Laerm;2038;51.728;6.674;2022-10-26T13:56:44;50.70;40.33;65.56;;
4048;Laerm;2038;51.728;6.674;2022-10-26T13:59:14;51.40;40.23;67.18;;
4048;Laerm;2038;51.728;6.674;2022-10-26T14:01:40;48.93;39.70;64.89;;
4048;Laerm;2038;51.728;6.674;2022-10-26T14:04:17;49.46;39.81;63.00;;
4048;Laerm;2038;51.728;6.674;2022-10-26T14:06:52;49.53;40.43;60.96;;
4048;Laerm;2038;51.728;6.674;2022-10-26T14:09:20;48.77;39.68;64.43;;
4048;Laerm;2038;51.728;6.674;2022-10-26T14:11:59;50.76;40.53;65.24;;
4048;Laerm;2038;51.728;6.674;2022-10-26T14:14:34;51.85;40.03;66.99;;
4048;Laerm;2038;51.728;6.674;2022-10-26T14:17:02;45.17;39.58;55.55;;
4048;Laerm;2038;51.728;6.674;2022-10-26T14:19:33;48.43;40.23;65.13;;
4048;Laerm;2038;51.728;6.674;2022-10-26T14:22:00;48.49;40.23;61.58;;
4048;Laerm;2038;51.728;6.674;2022-10-26T14:24:35;47.19;40.33;59.81;;
4048;Laerm;2038;51.728;6.674;2022-10-26T14:27:19;48.14;40.03;59.93;;
4048;Laerm;2038;51.728;6.674;2022-10-26T14:29:46;52.21;39.81;65.43;;
4048;Laerm;2038;51.728;6.674;2022-10-26T14:32:30;48.44;40.33;63.30;;
4048;Laerm;2038;51.728;6.674;2022-10-26T14:34:58;48.92;40.03;65.99;;
4048;Laerm;2038;51.728;6.674;2022-10-26T14:37:50;48.74;40.62;58.75;;
4048;Laerm;2038;51.728;6.674;2022-10-26T14:40:26;47.42;40.71;55.97;;
4048;Laerm;2038;51.728;6.674;2022-10-26T14:42:59;47.95;40.71;58.38;;
4048;Laerm;2038;51.728;6.674;2022-10-26T14:45:33;51.25;39.92;66.72;;
4048;Laerm;2038;51.728;6.674;2022-10-26T14:48:03;49.18;40.80;57.68;;
4048;Laerm;2038;51.728;6.674;2022-10-26T14:50:31;48.31;40.53;59.68;;
4048;Laerm;2038;51.728;6.674;2022-10-26T14:53:15;54.44;40.33;68.45;;
4048;Laerm;2038;51.728;6.674;2022-10-26T14:55:51;48.69;40.53;60.38;;
4048;Laerm;2038;51.728;6.674;2022-10-26T14:58:27;48.17;40.53;58.99;;
4048;Laerm;2038;51.728;6.674;2022-10-26T15:01:44;48.15;40.43;58.89;;
4048;Laerm;2038;51.728;6.674;2022-10-26T15:04:25;49.45;40.23;62.39;;
4048;Laerm;2038;51.728;6.674;2022-10-26T15:06:52;49.20;40.03;60.56;;
4048;Laerm;2038;51.728;6.674;2022-10-26T15:09:41;47.53;40.13;60.10;;
4048;Laerm;2038;51.728;6.674;2022-10-26T15:14:44;50.94;40.62;65.84;;
4048;Laerm;2038;51.728;6.674;2022-10-26T15:17:24;47.56;40.23;57.12;;
4048;Laerm;2038;51.728;6.674;2022-10-26T15:19:53;48.17;40.43;58.48;;
4048;Laerm;2038;51.728;6.674;2022-10-26T15:22:25;47.91;40.43;59.35;;
4048;Laerm;2038;51.728;6.674;2022-10-26T15:24:57;48.88;40.43;60.01;;
4048;Laerm;2038;51.728;6.674;2022-10-26T15:27:24;49.04;40.62;58.95;;
4048;Laerm;2038;51.728;6.674;2022-10-26T15:32:39;48.76;40.43;62.00;;
4048;Laerm;2038;51.728;6.674;2022-10-26T15:37:43;47.41;40.23;59.04;;
4048;Laerm;2038;51.728;6.674;2022-10-26T15:40:10;55.13;40.03;75.33;;
4048;Laerm;2038;51.728;6.674;2022-10-26T15:42:39;47.48;40.43;60.25;;
4048;Laerm;2038;51.728;6.674;2022-10-26T15:45:45;45.56;40.23;58.90;;
4048;Laerm;2038;51.728;6.674;2022-10-26T15:48:26;47.28;40.62;57.25;;
4048;Laerm;2038;51.728;6.674;2022-10-26T15:50:57;48.67;40.53;63.97;;
4048;Laerm;2038;51.728;6.674;2022-10-26T15:53:25;47.30;40.13;56.84;;
4048;Laerm;2038;51.728;6.674;2022-10-26T15:55:57;48.72;40.71;60.08;;
4048;Laerm;2038;51.728;6.674;2022-10-26T15:58:26;47.29;40.62;58.25;;
4048;Laerm;2038;51.728;6.674;2022-10-26T16:00:53;47.48;40.62;63.04;;
4048;Laerm;2038;51.728;6.674;2022-10-26T16:03:24;48.40;40.62;58.18;;
4048;Laerm;2038;51.728;6.674;2022-10-26T16:05:59;46.69;40.23;55.88;;
4048;Laerm;2038;51.728;6.674;2022-10-26T16:08:30;46.46;40.53;58.06;;
4048;Laerm;2038;51.728;6.674;2022-10-26T16:10:56;46.19;40.45;56.48;;
4048;Laerm;2038;51.728;6.674;2022-10-26T16:13:23;48.52;40.62;62.66;;
4048;Laerm;2038;51.728;6.674;2022-10-26T16:15:49;48.04;40.98;59.91;;
4048;Laerm;2038;51.728;6.674;2022-10-26T16:18:15;49.28;40.98;59.02;;
4048;Laerm;2038;51.728;6.674;2022-10-26T16:20:44;46.51;40.80;56.74;;
4048;Laerm;2038;51.728;6.674;2022-10-26T16:23:11;47.43;40.62;59.08;;